This is the latest recevied weather packets stored in our database for station/object NF3Q. If no packets are shown the sender has not sent any weather packets the latest 10 day(s).
| Time | Temp. | Humidity | Pressure | Rain* | Wind** | Luminosity | Snow |
|---|---|---|---|---|---|---|---|
| 1777142724 | 17.22° C | 84% | 1008.7 hPa | 0 mm | - | - | - |
| 1777142410 | 17.78° C | 83% | 1008.6 hPa | 0 mm | - | - | - |
| 1777141509 | 18.89° C | 82% | 1008.2 hPa | 0 mm | - | - | - |
| 1777141209 | 18.89° C | 83% | 1008.1 hPa | 0 mm | - | - | - |
| 1777140907 | 18.89° C | - | 1008.1 hPa | 0 mm | - | - | - |
| 1777138222 | 17.78° C | 88% | 1008.1 hPa | 0 mm | - | - | - |
| 1777137609 | 17.78° C | 88% | 1008.1 hPa | 0 mm | - | - | - |
| 1777135207 | 17.22° C | 90% | 1008.1 hPa | 2.03 mm | - | - | - |
| 1777134008 | 16.67° C | 91% | 1008 hPa | 2.03 mm | - | - | - |
| 1777132204 | 16.67° C | 88% | 1008.4 hPa | 0 mm | - | - | - |
| 1777130714 | 16.67° C | 89% | 1008.4 hPa | 0 mm | - | - | - |
| 1777130407 | 16.67° C | 89% | 1008.3 hPa | 0 mm | - | - | - |
| 1777129510 | 16.67° C | 91% | 1008.2 hPa | 0 mm | - | - | - |
| 1777126524 | 15.56° C | 92% | 1008.2 hPa | 0 mm | - | - | - |
| 1777125634 | 15.56° C | 92% | 1008.3 hPa | 0.51 mm | - | - | - |
| 1777121128 | 15° C | 92% | 1008.5 hPa | 1.02 mm | - | - | - |
| 1777120506 | 15° C | 92% | 1008.5 hPa | 0.76 mm | - | - | - |
| 1777119907 | 15° C | 92% | 1008.2 hPa | 0.51 mm | - | - | - |
| 1777119010 | 15° C | 92% | 1007.9 hPa | 0.25 mm | - | - | - |
| 1777117209 | 14.44° C | 91% | 1007.6 hPa | 0 mm | - | - | - |
| 1777115408 | 14.44° C | 91% | 1007.5 hPa | 0 mm | - | - | - |
| 1777114822 | 14.44° C | 91% | 1007.4 hPa | 0 mm | - | - | - |
| 1777113911 | 14.44° C | 91% | 1007.2 hPa | 0 mm | - | - | - |
| 1777109407 | 14.44° C | 91% | 1006.5 hPa | 0 mm | - | - | - |
| 1777107911 | 14.44° C | 91% | 1006.7 hPa | 0 mm | - | - | - |
* Rain latest hour (hover to see other rain measurements)
** Current wind speed in m/s (hover to see current wind gust speed)